Time;durP1;ratioP1;P1;durP2;ratioP2;P2;SDS_P1;SDS_P2;PMS_P1;PMS_P2;Temp;Humidity;BMP_temperature;BMP_pressure;BME280_temperature;BME280_humidity;BME280_pressure;Samples;Min_cycle;Max_cycle;Signal;HPM_P1;HPM_P2
2023/01/28 00:02:02;;;;;;;1.50;0.83;;;;;;;;;;4992868;28;20223;-82
2023/01/28 00:04:27;;;;;;;1.53;0.90;;;;;;;;;;4992385;28;20236;-83
2023/01/28 00:06:55;;;;;;;1.33;0.90;;;;;;;;;;4992322;28;20225;-81
2023/01/28 00:09:23;;;;;;;1.63;1.10;;;;;;;;;;4991279;28;20233;-80
2023/01/28 00:11:49;;;;;;;2.10;0.90;;;;;;;;;;4941867;28;20713;-80
2023/01/28 00:14:18;;;;;;;1.07;0.70;;;;;;;;;;4972755;28;20226;-82
2023/01/28 00:16:46;;;;;;;1.63;0.73;;;;;;;;;;4992954;28;20642;-83
2023/01/28 00:19:14;;;;;;;2.50;0.67;;;;;;;;;;4975975;28;20218;-82
2023/01/28 00:21:40;;;;;;;1.10;0.87;;;;;;;;;;4968154;28;20226;-82
2023/01/28 00:24:08;;;;;;;1.20;0.80;;;;;;;;;;5005164;28;20226;-81
2023/01/28 00:26:34;;;;;;;3.43;1.10;;;;;;;;;;4976256;28;20249;-80
2023/01/28 00:29:00;;;;;;;1.13;0.80;;;;;;;;;;4964647;28;20245;-82
2023/01/28 00:31:26;;;;;;;1.00;0.87;;;;;;;;;;4990282;28;20272;-81
2023/01/28 00:33:53;;;;;;;1.87;0.90;;;;;;;;;;4964598;28;20229;-80
2023/01/28 00:36:22;;;;;;;1.10;0.90;;;;;;;;;;4981700;28;20296;-81
2023/01/28 00:38:51;;;;;;;1.13;0.70;;;;;;;;;;4994257;28;20220;-81
2023/01/28 00:41:17;;;;;;;1.30;0.70;;;;;;;;;;4994591;28;20205;-80
2023/01/28 00:43:44;;;;;;;1.80;0.67;;;;;;;;;;4979620;28;21374;-80
2023/01/28 00:46:10;;;;;;;1.17;0.80;;;;;;;;;;4980152;28;20375;-81
2023/01/28 00:48:37;;;;;;;0.87;0.77;;;;;;;;;;5009746;28;20228;-80
2023/01/28 00:51:04;;;;;;;1.43;0.60;;;;;;;;;;4982553;28;20217;-80
2023/01/28 00:53:30;;;;;;;0.63;0.63;;;;;;;;;;4978707;28;20239;-82
2023/01/28 00:55:55;;;;;;;2.33;0.87;;;;;;;;;;4971790;28;20226;-81
2023/01/28 00:58:23;;;;;;;1.70;0.90;;;;;;;;;;4978718;28;20228;-80
2023/01/28 01:00:49;;;;;;;1.57;0.80;;;;;;;;;;4945047;28;20225;-81
2023/01/28 01:03:15;;;;;;;1.13;0.60;;;;;;;;;;4988258;28;20224;-79
2023/01/28 01:05:42;;;;;;;3.23;0.80;;;;;;;;;;4987279;28;20228;-80
2023/01/28 01:08:07;;;;;;;1.43;0.90;;;;;;;;;;4991938;28;20594;-80
2023/01/28 01:10:33;;;;;;;0.80;0.67;;;;;;;;;;4970440;28;20233;-80
2023/01/28 01:13:02;;;;;;;2.43;0.90;;;;;;;;;;4973120;28;20276;-79
2023/01/28 01:15:28;;;;;;;0.80;0.73;;;;;;;;;;4964021;28;20251;-80
2023/01/28 01:17:56;;;;;;;2.63;0.80;;;;;;;;;;4975011;28;20227;-79
2023/01/28 01:20:27;;;;;;;0.70;0.63;;;;;;;;;;4966424;28;20225;-80
2023/01/28 01:22:53;;;;;;;2.00;0.90;;;;;;;;;;4966576;28;20309;-79
2023/01/28 01:25:19;;;;;;;0.70;0.70;;;;;;;;;;4984860;28;20313;-80
2023/01/28 01:27:48;;;;;;;0.70;0.70;;;;;;;;;;4976218;28;20304;-82
2023/01/28 01:30:14;;;;;;;1.23;0.70;;;;;;;;;;4969300;28;20627;-80
2023/01/28 01:32:41;;;;;;;1.30;0.80;;;;;;;;;;4959865;28;20229;-80
2023/01/28 01:35:08;;;;;;;0.93;0.90;;;;;;;;;;4986341;28;20291;-80
2023/01/28 01:37:34;;;;;;;1.17;0.70;;;;;;;;;;5000038;28;20283;-80
2023/01/28 01:40:03;;;;;;;1.67;0.70;;;;;;;;;;4985833;28;20218;-80
2023/01/28 01:42:30;;;;;;;1.27;0.90;;;;;;;;;;4958140;28;20740;-82
2023/01/28 01:45:12;;;;;;;0.93;0.77;;;;;;;;;;4993522;28;20576;-80
2023/01/28 01:47:41;;;;;;;0.97;0.80;;;;;;;;;;4985541;28;20651;-79
2023/01/28 01:50:31;;;;;;;1.13;0.90;;;;;;;;;;4996230;28;20232;-79
2023/01/28 01:53:02;;;;;;;2.13;0.80;;;;;;;;;;5006669;28;21084;-82
2023/01/28 01:55:29;;;;;;;1.13;0.80;;;;;;;;;;4969584;28;20217;-79
2023/01/28 01:57:54;;;;;;;3.43;0.70;;;;;;;;;;4973312;28;20214;-80
2023/01/28 02:00:20;;;;;;;1.23;0.80;;;;;;;;;;4972326;28;20532;-82
2023/01/28 02:02:47;;;;;;;1.33;0.70;;;;;;;;;;4989025;28;20217;-81
2023/01/28 02:05:16;;;;;;;3.23;0.77;;;;;;;;;;4991785;28;20217;-80
2023/01/28 02:07:50;;;;;;;0.87;0.83;;;;;;;;;;4976814;28;20291;-79
2023/01/28 02:10:16;;;;;;;0.87;0.70;;;;;;;;;;4983482;28;20283;-79
2023/01/28 02:12:46;;;;;;;1.73;0.93;;;;;;;;;;4938823;28;20308;-80
2023/01/28 02:15:18;;;;;;;2.20;1.20;;;;;;;;;;4966173;28;20213;-79
2023/01/28 02:17:44;;;;;;;0.70;0.70;;;;;;;;;;4961835;28;20220;-80
2023/01/28 02:20:31;;;;;;;1.13;0.90;;;;;;;;;;4956584;28;20240;-80
2023/01/28 02:23:29;;;;;;;0.90;0.80;;;;;;;;;;4972093;28;20225;-79
2023/01/28 02:26:08;;;;;;;2.03;0.77;;;;;;;;;;4993001;28;20349;-81
2023/01/28 02:28:45;;;;;;;1.47;1.00;;;;;;;;;;4993434;28;20225;-81
2023/01/28 02:31:53;;;;;;;0.80;0.60;;;;;;;;;;4975650;28;20213;-79
2023/01/28 02:34:37;;;;;;;2.13;1.00;;;;;;;;;;4976549;28;20270;-82
2023/01/28 02:37:25;;;;;;;0.80;0.80;;;;;;;;;;4976971;28;20814;-80
2023/01/28 02:39:53;;;;;;;0.60;0.60;;;;;;;;;;4995108;28;20217;-83
2023/01/28 02:42:27;;;;;;;0.93;0.87;;;;;;;;;;4970077;28;20284;-79
2023/01/28 02:44:52;;;;;;;2.10;0.83;;;;;;;;;;4998761;28;20241;-79
2023/01/28 02:48:19;;;;;;;2.73;0.83;;;;;;;;;;4995145;28;20222;-81
2023/01/28 02:50:14;;;;;;;1.07;0.80;;;;;;;;;;4968114;28;20777;-79
2023/01/28 02:56:28;;;;;;;1.33;0.70;;;;;;;;;;5013219;28;20229;-80
2023/01/28 02:59:29;;;;;;;0.50;0.50;;;;;;;;;;5000127;28;20766;-82
2023/01/28 03:01:49;;;;;;;1.30;0.63;;;;;;;;;;4987501;28;20253;-82
2023/01/28 03:04:25;;;;;;;2.07;0.70;;;;;;;;;;4982157;28;20223;-79
2023/01/28 03:06:55;;;;;;;0.83;0.80;;;;;;;;;;4978513;28;20228;-80
2023/01/28 03:09:21;;;;;;;1.87;0.60;;;;;;;;;;4964832;28;20229;-81
2023/01/28 03:37:00;;;;;;;2.40;0.90;;;;;;;;;;4978655;28;20736;-80
2023/01/28 03:39:37;;;;;;;1.43;1.00;;;;;;;;;;4977095;28;20237;-81
2023/01/28 03:42:06;;;;;;;1.87;1.07;;;;;;;;;;4968922;28;20224;-82
2023/01/28 03:44:48;;;;;;;1.03;0.90;;;;;;;;;;4965923;28;20248;-82
2023/01/28 03:47:13;;;;;;;1.47;0.80;;;;;;;;;;4966408;28;21204;-81
2023/01/28 03:49:41;;;;;;;1.13;0.80;;;;;;;;;;4950139;28;20249;-82
2023/01/28 03:52:07;;;;;;;3.40;0.90;;;;;;;;;;4980531;28;20213;-81
2023/01/28 03:54:33;;;;;;;1.80;1.17;;;;;;;;;;4969725;28;20230;-82
2023/01/28 03:56:58;;;;;;;2.17;0.93;;;;;;;;;;5014114;28;20223;-79
2023/01/28 03:59:24;;;;;;;1.30;0.80;;;;;;;;;;4973081;28;20595;-81
2023/01/28 04:01:50;;;;;;;1.33;0.90;;;;;;;;;;4977816;28;20284;-82
2023/01/28 04:04:23;;;;;;;1.67;1.13;;;;;;;;;;4985245;28;20730;-80
2023/01/28 04:06:52;;;;;;;3.50;1.00;;;;;;;;;;4971042;28;20276;-81
2023/01/28 04:09:40;;;;;;;0.77;0.77;;;;;;;;;;4982650;28;20248;-79
2023/01/28 04:12:26;;;;;;;0.83;0.73;;;;;;;;;;4974262;28;20301;-81
2023/01/28 04:14:53;;;;;;;2.87;0.87;;;;;;;;;;4982257;28;20599;-80
2023/01/28 04:17:26;;;;;;;0.83;0.83;;;;;;;;;;4979625;28;20318;-82
2023/01/28 04:19:55;;;;;;;1.80;1.10;;;;;;;;;;4945883;28;20763;-80
2023/01/28 04:22:23;;;;;;;1.20;0.83;;;;;;;;;;4977580;28;20221;-82
2023/01/28 04:24:50;;;;;;;2.17;0.87;;;;;;;;;;4970494;28;20244;-82
2023/01/28 04:27:17;;;;;;;0.80;0.80;;;;;;;;;;4981315;28;20289;-82
2023/01/28 04:29:42;;;;;;;2.07;0.93;;;;;;;;;;4981882;28;20283;-82
2023/01/28 04:32:26;;;;;;;1.23;0.87;;;;;;;;;;4991034;28;20224;-80
2023/01/28 04:35:06;;;;;;;0.70;0.60;;;;;;;;;;4950287;28;20264;-79
2023/01/28 04:37:55;;;;;;;2.47;0.77;;;;;;;;;;5001948;28;20225;-80
2023/01/28 04:40:36;;;;;;;1.10;0.90;;;;;;;;;;4999797;28;20237;-80
2023/01/28 04:43:10;;;;;;;7.37;1.00;;;;;;;;;;4982902;28;20272;-80
2023/01/28 04:45:51;;;;;;;0.97;0.87;;;;;;;;;;4972979;28;20225;-81
2023/01/28 04:48:39;;;;;;;3.10;0.87;;;;;;;;;;4989924;28;20651;-83
2023/01/28 04:51:34;;;;;;;1.57;1.10;;;;;;;;;;4970474;28;20680;-81
2023/01/28 04:54:18;;;;;;;1.83;1.20;;;;;;;;;;5001828;28;20661;-82
2023/01/28 04:56:44;;;;;;;1.33;1.03;;;;;;;;;;4979902;28;20225;-81
2023/01/28 04:59:09;;;;;;;1.20;1.10;;;;;;;;;;4958267;28;20221;-80
2023/01/28 05:01:35;;;;;;;1.67;1.23;;;;;;;;;;4955401;28;20221;-81
2023/01/28 05:04:04;;;;;;;1.20;1.10;;;;;;;;;;4974716;28;20351;-81
2023/01/28 05:06:32;;;;;;;3.40;1.23;;;;;;;;;;4957466;28;20717;-82
2023/01/28 05:09:03;;;;;;;1.67;1.10;;;;;;;;;;4978127;28;20217;-79
2023/01/28 05:11:29;;;;;;;1.60;1.13;;;;;;;;;;4979638;28;20213;-83
2023/01/28 05:13:59;;;;;;;2.57;1.20;;;;;;;;;;5000014;28;20225;-81
2023/01/28 05:16:33;;;;;;;1.97;1.40;;;;;;;;;;4993854;28;20229;-81
2023/01/28 05:19:01;;;;;;;1.13;1.03;;;;;;;;;;4993769;28;20292;-83
2023/01/28 05:21:32;;;;;;;2.23;1.00;;;;;;;;;;4988699;28;20249;-82
2023/01/28 05:24:01;;;;;;;0.90;0.90;;;;;;;;;;4993158;28;20327;-81
2023/01/28 05:26:29;;;;;;;1.83;0.93;;;;;;;;;;4994546;28;20209;-82
2023/01/28 05:28:56;;;;;;;1.73;0.97;;;;;;;;;;4962765;28;20715;-83
2023/01/28 05:31:23;;;;;;;1.30;0.97;;;;;;;;;;4968966;28;20226;-81
2023/01/28 05:33:51;;;;;;;1.33;1.23;;;;;;;;;;5004816;28;20233;-82
2023/01/28 05:36:18;;;;;;;1.37;1.03;;;;;;;;;;4979105;28;20228;-81
2023/01/28 05:38:44;;;;;;;1.67;1.10;;;;;;;;;;4977865;28;20218;-80
2023/01/28 05:41:12;;;;;;;2.40;0.90;;;;;;;;;;4983567;28;20645;-80
2023/01/28 05:43:39;;;;;;;1.10;0.93;;;;;;;;;;4975336;28;20237;-81
2023/01/28 05:46:10;;;;;;;1.40;1.30;;;;;;;;;;4978873;28;20622;-81
2023/01/28 05:48:55;;;;;;;1.10;0.90;;;;;;;;;;4993383;28;20232;-83
2023/01/28 05:51:39;;;;;;;2.70;1.40;;;;;;;;;;4996172;28;20314;-80
2023/01/28 05:54:06;;;;;;;3.60;1.30;;;;;;;;;;4980907;28;20716;-81
2023/01/28 05:56:33;;;;;;;0.93;0.93;;;;;;;;;;4946555;28;20629;-82
2023/01/28 05:58:59;;;;;;;2.03;1.40;;;;;;;;;;4984720;28;20594;-84
2023/01/28 06:01:25;;;;;;;1.27;1.17;;;;;;;;;;4985540;28;20225;-80
2023/01/28 06:03:53;;;;;;;1.63;1.30;;;;;;;;;;4965635;28;20233;-82
2023/01/28 06:06:18;;;;;;;3.90;1.30;;;;;;;;;;4978108;28;20232;-82
2023/01/28 06:08:45;;;;;;;1.73;1.30;;;;;;;;;;4997178;28;20232;-81
2023/01/28 06:11:25;;;;;;;1.27;1.17;;;;;;;;;;4991275;28;20825;-81
2023/01/28 06:13:53;;;;;;;2.23;1.00;;;;;;;;;;4973403;28;21104;-82
2023/01/28 06:16:34;;;;;;;1.23;1.13;;;;;;;;;;4971114;28;20567;-82
2023/01/28 06:19:24;;;;;;;1.53;1.20;;;;;;;;;;5006858;28;20228;-81
2023/01/28 06:21:52;;;;;;;3.43;1.60;;;;;;;;;;4988448;28;20280;-81
2023/01/28 06:24:21;;;;;;;2.23;1.50;;;;;;;;;;4992900;28;20221;-81
2023/01/28 06:26:47;;;;;;;2.07;1.37;;;;;;;;;;4986792;28;20226;-83
2023/01/28 06:29:13;;;;;;;1.97;1.63;;;;;;;;;;5000909;28;20845;-84
2023/01/28 06:31:38;;;;;;;3.10;1.73;;;;;;;;;;4960386;28;20227;-84
2023/01/28 06:34:04;;;;;;;1.93;1.50;;;;;;;;;;4974483;28;20217;-83
2023/01/28 06:36:32;;;;;;;2.30;1.57;;;;;;;;;;4949688;28;20225;-83
2023/01/28 06:38:59;;;;;;;1.77;1.60;;;;;;;;;;4979310;28;20809;-83
2023/01/28 06:41:26;;;;;;;2.77;1.77;;;;;;;;;;4983068;28;20713;-84
2023/01/28 06:43:54;;;;;;;4.60;2.50;;;;;;;;;;4975972;28;20237;-84
2023/01/28 06:46:25;;;;;;;2.40;2.20;;;;;;;;;;4989740;28;20220;-83
2023/01/28 06:48:50;;;;;;;3.40;1.97;;;;;;;;;;4958984;28;20226;-84
2023/01/28 06:51:16;;;;;;;2.67;2.37;;;;;;;;;;4979661;28;20799;-84
2023/01/28 06:53:41;;;;;;;2.53;2.33;;;;;;;;;;4968621;28;20230;-84
2023/01/28 06:56:07;;;;;;;2.00;1.90;;;;;;;;;;4995915;28;20598;-84
2023/01/28 06:58:33;;;;;;;4.63;2.43;;;;;;;;;;4990694;28;20222;-84
2023/01/28 07:00:59;;;;;;;3.13;2.60;;;;;;;;;;4968516;28;20222;-84
2023/01/28 07:03:24;;;;;;;2.20;2.00;;;;;;;;;;4957018;28;20286;-83
2023/01/28 07:05:50;;;;;;;2.70;2.10;;;;;;;;;;4968322;28;20286;-84
2023/01/28 07:08:15;;;;;;;3.23;2.00;;;;;;;;;;4996364;28;20723;-84
2023/01/28 07:10:43;;;;;;;2.77;1.73;;;;;;;;;;4954276;28;20257;-84
2023/01/28 07:13:14;;;;;;;1.67;1.57;;;;;;;;;;4982665;28;20248;-81
2023/01/28 07:15:40;;;;;;;2.70;1.93;;;;;;;;;;4972962;28;20225;-80
2023/01/28 07:18:08;;;;;;;2.43;1.90;;;;;;;;;;4995117;28;20336;-81
2023/01/28 07:20:33;;;;;;;2.50;1.80;;;;;;;;;;4974576;28;20225;-81
2023/01/28 07:23:01;;;;;;;2.00;1.90;;;;;;;;;;4972166;28;20210;-80
2023/01/28 07:25:26;;;;;;;2.03;1.83;;;;;;;;;;4967459;28;20638;-81
2023/01/28 07:27:54;;;;;;;2.00;1.90;;;;;;;;;;4996490;28;20228;-81
2023/01/28 07:30:20;;;;;;;2.57;1.70;;;;;;;;;;4971243;28;20312;-80
2023/01/28 07:32:46;;;;;;;1.60;1.40;;;;;;;;;;4972717;28;20228;-79
2023/01/28 07:35:12;;;;;;;1.50;1.40;;;;;;;;;;4997966;28;20221;-81
2023/01/28 07:37:38;;;;;;;1.63;1.40;;;;;;;;;;4993289;28;20229;-80
2023/01/28 07:40:05;;;;;;;2.17;1.53;;;;;;;;;;4991119;28;20218;-80
2023/01/28 07:42:32;;;;;;;1.67;1.47;;;;;;;;;;5001149;28;20259;-81
2023/01/28 07:45:03;;;;;;;3.13;2.10;;;;;;;;;;4987004;28;20227;-79
2023/01/28 07:47:29;;;;;;;2.27;2.00;;;;;;;;;;5013371;28;20233;-81
2023/01/28 07:49:55;;;;;;;3.80;2.57;;;;;;;;;;4984512;28;20257;-81
2023/01/28 07:52:20;;;;;;;4.23;3.10;;;;;;;;;;4991842;28;20214;-80
2023/01/28 07:54:46;;;;;;;2.77;2.57;;;;;;;;;;4994526;28;20696;-80
2023/01/28 07:57:11;;;;;;;3.80;2.40;;;;;;;;;;4978611;28;20707;-80
2023/01/28 07:59:37;;;;;;;2.73;2.40;;;;;;;;;;4982251;28;20225;-81
2023/01/28 08:02:02;;;;;;;3.87;3.23;;;;;;;;;;4964963;28;20218;-81
2023/01/28 08:04:28;;;;;;;2.70;2.50;;;;;;;;;;4978817;28;20217;-81
2023/01/28 08:06:55;;;;;;;5.63;5.00;;;;;;;;;;5010342;28;20240;-81
2023/01/28 08:09:23;;;;;;;4.03;3.20;;;;;;;;;;4991542;28;20240;-81
2023/01/28 08:11:51;;;;;;;4.43;3.33;;;;;;;;;;4992256;28;20237;-81
2023/01/28 08:14:17;;;;;;;2.33;2.23;;;;;;;;;;4968669;28;20217;-81
2023/01/28 08:16:43;;;;;;;3.40;2.00;;;;;;;;;;4992340;28;20248;-80
2023/01/28 08:19:09;;;;;;;1.50;1.40;;;;;;;;;;5008994;28;20209;-82
2023/01/28 08:21:36;;;;;;;2.87;2.20;;;;;;;;;;4967725;28;20236;-80
2023/01/28 08:24:02;;;;;;;2.60;2.00;;;;;;;;;;4978477;28;20229;-80
2023/01/28 08:26:28;;;;;;;1.70;1.60;;;;;;;;;;4992100;28;20221;-80
2023/01/28 08:28:53;;;;;;;2.47;1.80;;;;;;;;;;4990926;28;20221;-80
2023/01/28 08:31:24;;;;;;;2.53;1.77;;;;;;;;;;4977319;28;20217;-81
2023/01/28 08:33:54;;;;;;;2.50;1.93;;;;;;;;;;4995365;28;20295;-81
2023/01/28 08:36:19;;;;;;;2.50;1.70;;;;;;;;;;4993665;28;20327;-83
2023/01/28 08:38:45;;;;;;;2.80;1.60;;;;;;;;;;4977802;28;20218;-83
2023/01/28 08:41:10;;;;;;;1.77;1.67;;;;;;;;;;4999229;28;20942;-84
2023/01/28 08:43:36;;;;;;;1.93;1.70;;;;;;;;;;4967206;28;20617;-83
2023/01/28 08:46:05;;;;;;;2.33;1.60;;;;;;;;;;5004781;28;20216;-83
2023/01/28 08:48:30;;;;;;;1.63;1.53;;;;;;;;;;4973517;28;20298;-81
2023/01/28 08:50:59;;;;;;;1.67;1.37;;;;;;;;;;5000583;28;20235;-82
2023/01/28 08:53:25;;;;;;;3.00;1.47;;;;;;;;;;4998426;28;20257;-80
2023/01/28 08:55:52;;;;;;;3.67;1.83;;;;;;;;;;4987485;28;20259;-80
2023/01/28 08:58:18;;;;;;;2.90;2.30;;;;;;;;;;4967047;28;20734;-79
2023/01/28 09:00:45;;;;;;;1.80;1.70;;;;;;;;;;4968268;28;20213;-80
2023/01/28 09:03:11;;;;;;;3.47;1.90;;;;;;;;;;4967669;28;20279;-81
2023/01/28 09:05:36;;;;;;;2.30;1.80;;;;;;;;;;4968649;28;20233;-81
2023/01/28 09:08:03;;;;;;;2.63;2.00;;;;;;;;;;4978715;28;20233;-81
2023/01/28 09:10:30;;;;;;;3.33;2.20;;;;;;;;;;4976504;28;20296;-80
2023/01/28 09:12:55;;;;;;;2.27;2.00;;;;;;;;;;4966594;28;20225;-80
2023/01/28 09:15:21;;;;;;;1.93;1.80;;;;;;;;;;4993625;28;20221;-80
2023/01/28 09:17:46;;;;;;;4.70;2.00;;;;;;;;;;4985128;28;20230;-81
2023/01/28 09:20:12;;;;;;;2.23;2.13;;;;;;;;;;4971065;28;20225;-82
2023/01/28 09:22:40;;;;;;;3.00;2.60;;;;;;;;;;4979695;28;20222;-80
2023/01/28 09:25:06;;;;;;;3.10;2.23;;;;;;;;;;5011140;28;20300;-81
2023/01/28 09:27:32;;;;;;;11.33;6.07;;;;;;;;;;4990064;28;20224;-81
2023/01/28 09:29:58;;;;;;;2.93;2.73;;;;;;;;;;4972049;28;20226;-82
2023/01/28 09:32:23;;;;;;;2.20;2.00;;;;;;;;;;4971820;28;20232;-82
2023/01/28 09:34:49;;;;;;;2.10;2.00;;;;;;;;;;4997155;28;20228;-82
2023/01/28 09:37:17;;;;;;;2.10;1.97;;;;;;;;;;4997119;28;20905;-82
2023/01/28 09:39:44;;;;;;;1.90;1.80;;;;;;;;;;4964969;28;20229;-80
2023/01/28 09:42:28;;;;;;;3.43;1.97;;;;;;;;;;5010984;28;20296;-81
2023/01/28 09:45:14;;;;;;;3.80;2.23;;;;;;;;;;4996393;28;20229;-82
2023/01/28 09:47:48;;;;;;;3.53;2.23;;;;;;;;;;4997891;28;20287;-81
2023/01/28 09:50:27;;;;;;;3.40;2.60;;;;;;;;;;4991489;28;20237;-82
2023/01/28 09:52:55;;;;;;;3.47;3.07;;;;;;;;;;4998103;28;20225;-80
2023/01/28 09:55:43;;;;;;;2.27;2.10;;;;;;;;;;4978583;28;20213;-82
2023/01/28 09:58:14;;;;;;;3.80;2.37;;;;;;;;;;4996181;28;20217;-81
2023/01/28 10:00:49;;;;;;;2.73;2.53;;;;;;;;;;4968296;28;20235;-80
2023/01/28 10:03:17;;;;;;;2.53;2.43;;;;;;;;;;4994239;28;21100;-81
2023/01/28 10:05:52;;;;;;;2.60;2.33;;;;;;;;;;4992941;28;20756;-81
2023/01/28 10:08:39;;;;;;;3.70;3.30;;;;;;;;;;4994400;28;20221;-82
2023/01/28 10:11:07;;;;;;;3.00;2.60;;;;;;;;;;5006275;28;20221;-82
2023/01/28 10:13:59;;;;;;;2.57;2.30;;;;;;;;;;4992975;28;20341;-83
2023/01/28 10:16:28;;;;;;;2.73;2.40;;;;;;;;;;4974873;28;20237;-83
2023/01/28 10:19:09;;;;;;;2.73;2.37;;;;;;;;;;4977264;28;20230;-83
2023/01/28 10:21:41;;;;;;;2.37;2.17;;;;;;;;;;5007882;28;20218;-82
2023/01/28 10:24:10;;;;;;;2.90;2.50;;;;;;;;;;4961336;28;20268;-83
2023/01/28 10:26:37;;;;;;;3.07;2.60;;;;;;;;;;5007615;28;20225;-84
2023/01/28 10:29:25;;;;;;;3.00;2.70;;;;;;;;;;4984875;28;20299;-84
2023/01/28 10:32:49;;;;;;;2.77;2.43;;;;;;;;;;4968100;28;20245;-84
2023/01/28 10:35:22;;;;;;;3.40;2.40;;;;;;;;;;4971642;28;20218;-85
2023/01/28 10:37:48;;;;;;;2.97;2.77;;;;;;;;;;4970128;28;20221;-85
2023/01/28 10:40:19;;;;;;;3.17;2.27;;;;;;;;;;5008889;28;20220;-83
2023/01/28 10:42:47;;;;;;;3.67;2.67;;;;;;;;;;4972171;28;20284;-85
2023/01/28 10:45:20;;;;;;;2.67;2.47;;;;;;;;;;4978483;28;20218;-84
2023/01/28 10:47:50;;;;;;;3.10;2.50;;;;;;;;;;4994763;28;20229;-84
2023/01/28 10:50:26;;;;;;;3.17;2.87;;;;;;;;;;4993823;28;20249;-84
2023/01/28 10:52:55;;;;;;;2.73;2.53;;;;;;;;;;4970372;28;20231;-84
2023/01/28 10:55:21;;;;;;;2.83;2.47;;;;;;;;;;4978339;28;20245;-83
2023/01/28 10:57:46;;;;;;;2.73;2.40;;;;;;;;;;4978029;28;20226;-84
2023/01/28 11:00:34;;;;;;;3.37;3.07;;;;;;;;;;4980171;28;20213;-84
2023/01/28 11:03:00;;;;;;;2.87;2.50;;;;;;;;;;4978565;28;20218;-85
2023/01/28 11:05:31;;;;;;;3.40;2.50;;;;;;;;;;4960551;28;20221;-84
2023/01/28 11:08:17;;;;;;;3.23;2.93;;;;;;;;;;4980946;28;20362;-85
2023/01/28 11:10:47;;;;;;;3.40;3.03;;;;;;;;;;4987542;28;20257;-84
2023/01/28 11:13:23;;;;;;;3.17;2.97;;;;;;;;;;4986791;28;20224;-85
2023/01/28 11:15:59;;;;;;;2.77;2.60;;;;;;;;;;4968978;28;20225;-84
2023/01/28 11:18:46;;;;;;;2.70;2.37;;;;;;;;;;4967692;28;20232;-85
2023/01/28 11:21:17;;;;;;;2.60;2.40;;;;;;;;;;4993547;28;20221;-84
2023/01/28 11:23:57;;;;;;;5.20;2.70;;;;;;;;;;4979151;28;20244;-82
2023/01/28 11:26:31;;;;;;;2.67;2.47;;;;;;;;;;5014842;28;20229;-85
2023/01/28 11:28:57;;;;;;;3.50;3.03;;;;;;;;;;4985098;28;20229;-85
2023/01/28 11:31:25;;;;;;;3.13;2.83;;;;;;;;;;4962733;28;20260;-85
2023/01/28 11:33:57;;;;;;;3.00;2.57;;;;;;;;;;4977447;28;20429;-85
2023/01/28 11:36:27;;;;;;;4.33;2.70;;;;;;;;;;4957704;28;20230;-85
2023/01/28 11:38:58;;;;;;;4.17;2.40;;;;;;;;;;4990134;28;20241;-86
2023/01/28 11:41:29;;;;;;;2.83;2.53;;;;;;;;;;4966345;28;20228;-84
2023/01/28 11:43:55;;;;;;;3.03;2.43;;;;;;;;;;4957566;28;20233;-83
2023/01/28 11:46:48;;;;;;;2.70;2.10;;;;;;;;;;4982620;28;20225;-84
2023/01/28 11:49:35;;;;;;;3.43;2.67;;;;;;;;;;5013634;28;20730;-86
2023/01/28 11:52:24;;;;;;;3.13;2.70;;;;;;;;;;4981492;28;20304;-84
2023/01/28 11:55:21;;;;;;;3.13;2.83;;;;;;;;;;5001586;28;20237;-85
2023/01/28 11:57:50;;;;;;;2.87;2.53;;;;;;;;;;4998321;28;20294;-83
2023/01/28 12:00:50;;;;;;;3.70;2.97;;;;;;;;;;5007226;28;20221;-84
2023/01/28 12:03:30;;;;;;;2.57;2.37;;;;;;;;;;5006601;28;20235;-84
2023/01/28 12:06:28;;;;;;;3.37;2.60;;;;;;;;;;4992263;28;20236;-83
2023/01/28 12:09:20;;;;;;;2.70;2.50;;;;;;;;;;4949676;28;20238;-84
2023/01/28 12:12:23;;;;;;;2.43;2.23;;;;;;;;;;4992651;28;20244;-85
2023/01/28 12:15:25;;;;;;;2.50;2.30;;;;;;;;;;5016590;28;20768;-85
2023/01/28 12:17:58;;;;;;;3.03;2.60;;;;;;;;;;4968203;28;20695;-84
2023/01/28 12:20:44;;;;;;;2.70;2.50;;;;;;;;;;4956538;28;20304;-83
2023/01/28 12:23:12;;;;;;;2.67;2.47;;;;;;;;;;5009097;28;20669;-84
2023/01/28 12:25:56;;;;;;;3.37;2.70;;;;;;;;;;5012425;28;20232;-84
2023/01/28 12:28:43;;;;;;;3.07;2.43;;;;;;;;;;5007967;28;20221;-86
2023/01/28 12:31:27;;;;;;;2.50;2.30;;;;;;;;;;4995232;28;20641;-85
2023/01/28 12:34:05;;;;;;;2.83;2.60;;;;;;;;;;4974364;28;20225;-85
2023/01/28 12:36:57;;;;;;;2.97;2.77;;;;;;;;;;5011664;28;20243;-84
2023/01/28 12:39:37;;;;;;;3.47;2.93;;;;;;;;;;4991730;28;20232;-85
2023/01/28 12:42:14;;;;;;;2.80;2.60;;;;;;;;;;4979960;28;20308;-84
2023/01/28 12:44:43;;;;;;;4.27;2.53;;;;;;;;;;4966248;28;20234;-86
2023/01/28 12:47:15;;;;;;;2.60;2.40;;;;;;;;;;4978034;28;20217;-85
2023/01/28 12:49:56;;;;;;;2.87;2.60;;;;;;;;;;4959124;28;20230;-83
2023/01/28 12:52:43;;;;;;;3.60;2.70;;;;;;;;;;4988508;28;20248;-85
2023/01/28 12:55:34;;;;;;;2.93;2.27;;;;;;;;;;4968840;28;20217;-84
2023/01/28 12:57:59;;;;;;;2.53;2.33;;;;;;;;;;4976072;28;20312;-84
2023/01/28 13:00:35;;;;;;;2.60;2.40;;;;;;;;;;4962608;28;20218;-84
2023/01/28 13:03:01;;;;;;;3.10;2.80;;;;;;;;;;4961561;28;20701;-83
2023/01/28 13:05:32;;;;;;;3.00;2.53;;;;;;;;;;4997147;28;20229;-85
2023/01/28 13:08:18;;;;;;;2.97;2.57;;;;;;;;;;4962946;28;20221;-86
2023/01/28 13:10:47;;;;;;;4.10;2.63;;;;;;;;;;4953779;28;20260;-85
2023/01/28 13:13:41;;;;;;;4.13;2.83;;;;;;;;;;4970285;28;20248;-85
2023/01/28 13:16:07;;;;;;;3.17;2.63;;;;;;;;;;4986652;28;20216;-83
2023/01/28 13:18:39;;;;;;;3.83;2.70;;;;;;;;;;4987110;28;20244;-83
2023/01/28 13:21:18;;;;;;;3.43;2.87;;;;;;;;;;5008768;28;20228;-86
2023/01/28 13:23:45;;;;;;;2.77;2.57;;;;;;;;;;4963244;28;20264;-83
2023/01/28 13:26:19;;;;;;;3.10;2.80;;;;;;;;;;4986917;28;20269;-85
2023/01/28 13:28:46;;;;;;;2.77;2.57;;;;;;;;;;5012478;28;20297;-85
2023/01/28 13:31:22;;;;;;;3.27;2.97;;;;;;;;;;4981419;28;20680;-84
2023/01/28 13:33:48;;;;;;;3.23;2.97;;;;;;;;;;4982432;28;21046;-86
2023/01/28 13:36:27;;;;;;;4.70;2.87;;;;;;;;;;4968738;28;20213;-84
2023/01/28 13:39:04;;;;;;;3.23;2.70;;;;;;;;;;4982834;28;20221;-84
2023/01/28 13:41:36;;;;;;;2.67;2.47;;;;;;;;;;4965787;28;20241;-86
2023/01/28 13:44:02;;;;;;;3.23;2.93;;;;;;;;;;4997927;28;20271;-84
2023/01/28 13:46:30;;;;;;;3.43;3.13;;;;;;;;;;4973158;28;20233;-84
2023/01/28 13:48:57;;;;;;;5.63;3.30;;;;;;;;;;4953052;28;20276;-83
2023/01/28 13:51:40;;;;;;;3.60;3.30;;;;;;;;;;4988271;28;22045;-85
2023/01/28 13:54:18;;;;;;;4.13;3.77;;;;;;;;;;4990884;28;20271;-86
2023/01/28 13:56:58;;;;;;;3.70;3.40;;;;;;;;;;4964051;28;20224;-86
2023/01/28 13:59:32;;;;;;;4.67;3.57;;;;;;;;;;5002604;28;20576;-86
2023/01/28 14:02:25;;;;;;;3.77;3.47;;;;;;;;;;4991501;28;20229;-84
2023/01/28 14:05:03;;;;;;;4.10;3.80;;;;;;;;;;4993459;28;20226;-84
2023/01/28 14:07:59;;;;;;;4.13;3.73;;;;;;;;;;5004164;28;20248;-84
2023/01/28 14:10:42;;;;;;;6.77;3.90;;;;;;;;;;4975280;28;20733;-82
2023/01/28 14:13:23;;;;;;;5.10;4.30;;;;;;;;;;4992691;28;20232;-82
2023/01/28 14:16:16;;;;;;;4.50;4.00;;;;;;;;;;4983553;28;20224;-82
2023/01/28 14:18:42;;;;;;;4.33;3.80;;;;;;;;;;5013034;28;20256;-82
2023/01/28 14:21:12;;;;;;;4.23;3.83;;;;;;;;;;4969485;28;20225;-83
2023/01/28 14:23:47;;;;;;;4.37;3.97;;;;;;;;;;4987182;28;20702;-81
2023/01/28 14:26:42;;;;;;;4.60;3.53;;;;;;;;;;4958414;28;20211;-81
2023/01/28 14:29:12;;;;;;;3.73;3.43;;;;;;;;;;4994320;28;20629;-81
2023/01/28 14:31:38;;;;;;;3.90;3.60;;;;;;;;;;4996316;28;20233;-81
2023/01/28 14:34:12;;;;;;;3.80;3.50;;;;;;;;;;4952352;28;20217;-82
2023/01/28 14:36:42;;;;;;;4.73;4.33;;;;;;;;;;4996856;28;20224;-81
2023/01/28 14:39:16;;;;;;;6.20;5.57;;;;;;;;;;4976829;28;20249;-81
2023/01/28 14:41:43;;;;;;;6.33;5.27;;;;;;;;;;4993670;28;20230;-81
2023/01/28 14:44:08;;;;;;;5.50;5.00;;;;;;;;;;4994959;28;20253;-80
2023/01/28 14:46:45;;;;;;;8.20;7.37;;;;;;;;;;4998008;28;20209;-79
2023/01/28 14:49:28;;;;;;;6.43;5.80;;;;;;;;;;4984830;28;20217;-81
2023/01/28 14:52:12;;;;;;;6.40;5.80;;;;;;;;;;5010886;28;20240;-83
2023/01/28 14:54:48;;;;;;;6.57;5.97;;;;;;;;;;4992630;28;20225;-81
2023/01/28 14:57:30;;;;;;;6.90;6.30;;;;;;;;;;4999546;28;20221;-82
2023/01/28 15:00:00;;;;;;;7.03;6.33;;;;;;;;;;4999564;28;20312;-83
2023/01/28 15:02:28;;;;;;;6.50;6.00;;;;;;;;;;4966913;28;20218;-83
2023/01/28 15:04:53;;;;;;;6.83;5.70;;;;;;;;;;4970478;28;20236;-82
2023/01/28 15:07:20;;;;;;;6.70;6.10;;;;;;;;;;4995642;28;20222;-81
2023/01/28 15:09:47;;;;;;;6.77;6.17;;;;;;;;;;4994641;28;20735;-81
2023/01/28 15:12:14;;;;;;;6.50;6.00;;;;;;;;;;4995510;28;20296;-82
2023/01/28 15:14:40;;;;;;;7.80;7.03;;;;;;;;;;4971996;28;20757;-81
2023/01/28 15:17:18;;;;;;;7.93;6.43;;;;;;;;;;4977844;28;20588;-82
2023/01/28 15:19:43;;;;;;;6.60;6.10;;;;;;;;;;4976074;28;20785;-80
2023/01/28 15:22:12;;;;;;;7.77;7.03;;;;;;;;;;4996729;28;20220;-81
2023/01/28 15:24:39;;;;;;;7.60;6.90;;;;;;;;;;4997489;28;20225;-80
2023/01/28 15:27:05;;;;;;;6.80;6.27;;;;;;;;;;4974126;28;20256;-84
2023/01/28 15:29:32;;;;;;;7.17;6.57;;;;;;;;;;4985765;28;20226;-81
2023/01/28 15:31:58;;;;;;;7.73;7.03;;;;;;;;;;4963662;28;20273;-81
2023/01/28 15:34:29;;;;;;;7.97;7.13;;;;;;;;;;4975703;28;20237;-81
2023/01/28 15:36:58;;;;;;;7.50;6.90;;;;;;;;;;4976986;28;20438;-79
2023/01/28 15:39:25;;;;;;;8.20;7.40;;;;;;;;;;4991911;28;20224;-79
2023/01/28 15:42:02;;;;;;;7.57;7.00;;;;;;;;;;4985634;28;20245;-80